sensor_id;sensor_type;location;lat;lon;timestamp;temperature;humidity
11549;DHT22;61444;59.472;18.306;2023-02-28T21:31:03;2.80;99.90
11549;DHT22;61444;59.472;18.306;2023-02-28T21:33:21;2.90;99.90
11549;DHT22;61444;59.472;18.306;2023-02-28T21:37:24;2.80;99.90
11549;DHT22;61444;59.472;18.306;2023-02-28T21:39:06;2.70;99.90
11549;DHT22;61444;59.472;18.306;2023-02-28T21:44:38;2.50;99.90
11549;DHT22;61444;59.472;18.306;2023-02-28T21:51:19;2.30;99.90
11549;DHT22;61444;59.472;18.306;2023-02-28T21:54:36;2.20;99.90
11549;DHT22;61444;59.472;18.306;2023-02-28T21:57:56;2.10;99.90
11549;DHT22;61444;59.472;18.306;2023-02-28T22:00:46;2.20;99.90
11549;DHT22;61444;59.472;18.306;2023-02-28T22:02:56;2.20;99.90
11549;DHT22;61444;59.472;18.306;2023-02-28T22:05:11;2.20;99.90
11549;DHT22;61444;59.472;18.306;2023-02-28T22:07:26;2.10;99.90
11549;DHT22;61444;59.472;18.306;2023-02-28T22:09:48;2.10;99.90
11549;DHT22;61444;59.472;18.306;2023-02-28T22:12:12;2.00;99.90
11549;DHT22;61444;59.472;18.306;2023-02-28T22:14:41;2.10;99.90
11549;DHT22;61444;59.472;18.306;2023-02-28T22:16:55;2.10;99.90
11549;DHT22;61444;59.472;18.306;2023-02-28T22:19:25;2.10;99.90
11549;DHT22;61444;59.472;18.306;2023-02-28T22:22:46;2.00;99.90
11549;DHT22;61444;59.472;18.306;2023-02-28T22:25:20;2.00;99.90
11549;DHT22;61444;59.472;18.306;2023-02-28T22:27:32;2.00;99.90
11549;DHT22;61444;59.472;18.306;2023-02-28T22:29:45;2.00;99.90
11549;DHT22;61444;59.472;18.306;2023-02-28T22:32:10;2.00;99.90
11549;DHT22;61444;59.472;18.306;2023-02-28T22:34:25;2.00;99.90
11549;DHT22;61444;59.472;18.306;2023-02-28T22:36:34;2.00;99.90
11549;DHT22;61444;59.472;18.306;2023-02-28T22:38:43;2.00;99.90
11549;DHT22;61444;59.472;18.306;2023-02-28T22:40:55;1.90;99.90
11549;DHT22;61444;59.472;18.306;2023-02-28T22:43:05;1.90;99.90
11549;DHT22;61444;59.472;18.306;2023-02-28T22:45:13;2.00;99.90
11549;DHT22;61444;59.472;18.306;2023-02-28T22:47:22;2.00;99.90
11549;DHT22;61444;59.472;18.306;2023-02-28T22:49:34;2.10;99.90
11549;DHT22;61444;59.472;18.306;2023-02-28T22:51:51;2.00;99.90
11549;DHT22;61444;59.472;18.306;2023-02-28T22:54:03;2.00;99.90
11549;DHT22;61444;59.472;18.306;2023-02-28T22:56:15;2.00;99.90
11549;DHT22;61444;59.472;18.306;2023-02-28T22:58:24;2.00;99.90
11549;DHT22;61444;59.472;18.306;2023-02-28T23:00:33;2.10;99.90
11549;DHT22;61444;59.472;18.306;2023-02-28T23:02:42;2.00;99.90
11549;DHT22;61444;59.472;18.306;2023-02-28T23:04:53;2.10;99.90
11549;DHT22;61444;59.472;18.306;2023-02-28T23:07:02;2.10;99.90
11549;DHT22;61444;59.472;18.306;2023-02-28T23:09:12;2.20;99.90
11549;DHT22;61444;59.472;18.306;2023-02-28T23:11:27;2.10;99.90
11549;DHT22;61444;59.472;18.306;2023-02-28T23:13:36;2.10;99.90
11549;DHT22;61444;59.472;18.306;2023-02-28T23:15:50;2.20;99.90
11549;DHT22;61444;59.472;18.306;2023-02-28T23:18:15;2.10;99.90
11549;DHT22;61444;59.472;18.306;2023-02-28T23:20:29;2.20;99.90
11549;DHT22;61444;59.472;18.306;2023-02-28T23:22:41;2.00;99.90
11549;DHT22;61444;59.472;18.306;2023-02-28T23:24:59;1.90;99.90
11549;DHT22;61444;59.472;18.306;2023-02-28T23:27:10;1.80;99.90
11549;DHT22;61444;59.472;18.306;2023-02-28T23:29:34;1.80;99.90
11549;DHT22;61444;59.472;18.306;2023-02-28T23:32:25;1.90;99.90
11549;DHT22;61444;59.472;18.306;2023-02-28T23:34:34;1.80;99.90
11549;DHT22;61444;59.472;18.306;2023-02-28T23:36:45;1.80;99.90
11549;DHT22;61444;59.472;18.306;2023-02-28T23:39:15;1.70;99.90
11549;DHT22;61444;59.472;18.306;2023-02-28T23:41:24;1.80;99.90
11549;DHT22;61444;59.472;18.306;2023-02-28T23:43:33;1.90;99.90
11549;DHT22;61444;59.472;18.306;2023-02-28T23:45:43;1.90;99.90
11549;DHT22;61444;59.472;18.306;2023-02-28T23:47:52;1.80;99.90
11549;DHT22;61444;59.472;18.306;2023-02-28T23:50:02;1.70;99.90
11549;DHT22;61444;59.472;18.306;2023-02-28T23:52:12;1.70;99.90
11549;DHT22;61444;59.472;18.306;2023-02-28T23:54:21;1.70;99.90
11549;DHT22;61444;59.472;18.306;2023-02-28T23:56:33;1.70;99.90
11549;DHT22;61444;59.472;18.306;2023-02-28T23:58:47;1.70;99.90
